createdAt,value
2019-05-29T00:00:08.379Z,101946.93
2019-05-29T00:02:37.528Z,101952.63
2019-05-29T00:05:07.968Z,101952.07
2019-05-29T00:07:36.657Z,101953.19
2019-05-29T00:10:06.235Z,101955.12
2019-05-29T00:12:35.217Z,101959.69
2019-05-29T00:15:03.974Z,101964.95
2019-05-29T00:17:32.802Z,101966.14
2019-05-29T00:20:01.441Z,101966.06
2019-05-29T00:22:30.062Z,101961.86
2019-05-29T00:24:58.686Z,101962.65
2019-05-29T00:27:27.431Z,101965.75
2019-05-29T00:29:56.026Z,101969.28
2019-05-29T00:32:24.693Z,101971.07
2019-05-29T00:34:53.378Z,101980.48
2019-05-29T00:37:21.975Z,101984.86
2019-05-29T00:39:51.086Z,101985.63
2019-05-29T00:42:19.774Z,101991.77
2019-05-29T00:44:48.763Z,101994.19
2019-05-29T00:47:18.354Z,101989.27
2019-05-29T00:49:47.645Z,101989.87
2019-05-29T00:52:16.705Z,101989.55
2019-05-29T00:54:45.481Z,101985.70
2019-05-29T00:57:15.321Z,101986.09
2019-05-29T00:59:44.371Z,101986.63
2019-05-29T01:02:13.832Z,101991.31
2019-05-29T01:04:42.495Z,101994.28
2019-05-29T01:07:12.277Z,101998.84
2019-05-29T01:09:40.949Z,101997.05
2019-05-29T01:12:10.719Z,101998.95
2019-05-29T01:14:49.796Z,102000.73
2019-05-29T01:17:09.627Z,102008.72
2019-05-29T01:19:38.369Z,102007.22
2019-05-29T01:22:06.966Z,102008.45
2019-05-29T01:24:35.607Z,102012.46
2019-05-29T01:27:04.226Z,102006.73
2019-05-29T01:29:33.010Z,102002.50
2019-05-29T01:32:01.570Z,102009.95
2019-05-29T01:34:30.173Z,102010.92
2019-05-29T01:36:58.657Z,102018.80
2019-05-29T01:39:27.732Z,102024.25
2019-05-29T01:41:56.324Z,102023.01
2019-05-29T01:44:24.884Z,102022.71
2019-05-29T01:46:53.482Z,102020.63
2019-05-29T01:49:22.049Z,102020.98
2019-05-29T01:51:50.827Z,102021.11
2019-05-29T01:54:19.707Z,102023.57
2019-05-29T01:56:48.374Z,102032.80
2019-05-29T01:59:17.751Z,102037.03
2019-05-29T02:01:46.346Z,102033.20
2019-05-29T02:04:15.815Z,102034.47
2019-05-29T02:06:44.477Z,102030.67
2019-05-29T02:09:12.965Z,102037.78
2019-05-29T02:11:41.635Z,102031.17
2019-05-29T02:14:10.335Z,102029.39
2019-05-29T02:16:38.833Z,102036.77
2019-05-29T02:19:07.446Z,102045.94
2019-05-29T02:21:36.148Z,102045.80
2019-05-29T02:24:04.738Z,102050.52
2019-05-29T02:26:33.343Z,102053.45
2019-05-29T02:29:02.004Z,102054.58
2019-05-29T02:31:30.579Z,102048.29
2019-05-29T02:33:59.185Z,102053.51
2019-05-29T02:36:28.695Z,102057.67
2019-05-29T02:38:57.364Z,102058.05
2019-05-29T02:41:27.945Z,102057.09
2019-05-29T02:43:56.391Z,102062.91
2019-05-29T02:46:26.431Z,102058.97
2019-05-29T02:48:55.220Z,102060.47
2019-05-29T02:51:24.283Z,102059.12
2019-05-29T02:53:52.881Z,102059.50
2019-05-29T02:56:22.937Z,102063.96
2019-05-29T02:58:51.738Z,102072.22
2019-05-29T03:01:21.550Z,102070.20
2019-05-29T03:03:50.733Z,102074.72
2019-05-29T03:06:19.295Z,102073.00
2019-05-29T03:08:47.906Z,102074.69
2019-05-29T03:11:16.523Z,102078.27
2019-05-29T03:13:45.066Z,102083.33
2019-05-29T03:16:13.710Z,102083.81
2019-05-29T03:18:42.280Z,102080.28
2019-05-29T03:21:10.880Z,102085.64
2019-05-29T03:23:39.460Z,102089.50
2019-05-29T03:26:08.134Z,102091.97
2019-05-29T03:28:38.262Z,102089.45
2019-05-29T03:31:07.036Z,102094.38
2019-05-29T03:33:44.808Z,102094.89
2019-05-29T03:36:05.893Z,102095.88
2019-05-29T03:38:35.030Z,102097.41
2019-05-29T03:41:03.779Z,102101.42
2019-05-29T03:43:35.049Z,102104.78
2019-05-29T03:46:02.541Z,102112.11
2019-05-29T03:48:32.415Z,102110.02
2019-05-29T03:51:01.513Z,102112.53
2019-05-29T03:53:31.688Z,102109.98
2019-05-29T03:56:00.352Z,102111.70
2019-05-29T03:58:30.806Z,102112.16
2019-05-29T04:00:59.251Z,102105.57
2019-05-29T04:03:28.968Z,102110.64
2019-05-29T04:05:57.713Z,102115.80
2019-05-29T04:08:27.428Z,102119.83
2019-05-29T04:10:56.454Z,102124.27
2019-05-29T04:13:25.019Z,102125.44
2019-05-29T04:15:53.578Z,102125.35
2019-05-29T04:18:22.092Z,102122.59
2019-05-29T04:20:51.116Z,102120.67
2019-05-29T04:23:19.607Z,102125.92
2019-05-29T04:25:48.105Z,102128.88
2019-05-29T04:28:16.718Z,102131.02
2019-05-29T04:30:45.296Z,102130.08
2019-05-29T04:33:13.893Z,102142.11
2019-05-29T04:35:42.479Z,102132.00
2019-05-29T04:38:11.068Z,102140.13
2019-05-29T04:40:39.941Z,102142.23
2019-05-29T04:43:08.460Z,102144.83
2019-05-29T04:45:39.163Z,102152.69
2019-05-29T04:48:07.203Z,102156.52
2019-05-29T04:50:37.981Z,102161.95
2019-05-29T04:53:05.936Z,102169.97
2019-05-29T04:55:34.811Z,102172.23
2019-05-29T04:58:03.450Z,102181.66
2019-05-29T05:00:33.103Z,102178.58
2019-05-29T05:03:02.370Z,102185.57
2019-05-29T05:05:31.230Z,102193.70
2019-05-29T05:07:59.925Z,102193.95
2019-05-29T05:10:36.246Z,102194.22
2019-05-29T05:13:06.991Z,102197.36
2019-05-29T05:15:36.355Z,102195.88
2019-05-29T05:18:05.668Z,102204.52
2019-05-29T05:20:34.176Z,102210.05
2019-05-29T05:23:03.116Z,102214.41
2019-05-29T05:25:32.219Z,102213.13
2019-05-29T05:28:00.857Z,102218.08
2019-05-29T05:30:30.369Z,102218.91
2019-05-29T05:32:59.135Z,102218.45
2019-05-29T05:35:27.833Z,102223.59
2019-05-29T05:37:58.956Z,102226.50
2019-05-29T05:40:27.759Z,102227.41
2019-05-29T05:42:56.415Z,102228.79
2019-05-29T05:45:25.014Z,102228.44
2019-05-29T05:47:57.759Z,102231.80
2019-05-29T05:50:24.188Z,102234.72
2019-05-29T05:52:55.088Z,102240.98
2019-05-29T05:55:23.784Z,102238.41
2019-05-29T05:57:52.474Z,102235.50
2019-05-29T06:00:31.926Z,102241.12
2019-05-29T06:03:08.434Z,102238.45
2019-05-29T06:05:38.207Z,102241.40
2019-05-29T06:08:06.818Z,102238.40
2019-05-29T06:10:36.095Z,102240.81
2019-05-29T06:13:04.758Z,102243.19
2019-05-29T06:15:34.273Z,102246.39
2019-05-29T06:18:19.814Z,102243.31
2019-05-29T06:20:34.597Z,102249.00
2019-05-29T06:23:03.307Z,102248.73
2019-05-29T06:25:33.619Z,102258.30
2019-05-29T06:28:02.115Z,102255.62
2019-05-29T06:30:30.705Z,102257.19
2019-05-29T06:32:59.582Z,102259.62
2019-05-29T06:35:28.209Z,102261.31
2019-05-29T06:37:56.704Z,102261.11
2019-05-29T06:40:44.368Z,102264.10
2019-05-29T06:43:35.723Z,102266.12
2019-05-29T06:46:04.331Z,102270.69
2019-05-29T06:48:46.662Z,102269.30
2019-05-29T06:51:03.116Z,102267.95
2019-05-29T06:53:31.699Z,102277.23
2019-05-29T06:56:01.764Z,102280.08
2019-05-29T06:58:30.500Z,102277.73
2019-05-29T07:00:59.124Z,102275.35
2019-05-29T07:03:27.746Z,102278.14
2019-05-29T07:05:59.089Z,102279.84
2019-05-29T07:08:38.109Z,102280.81
2019-05-29T07:10:58.543Z,102282.45
2019-05-29T07:13:27.224Z,102277.72
2019-05-29T07:15:55.799Z,102286.60
2019-05-29T07:18:24.292Z,102282.76
2019-05-29T07:20:52.817Z,102282.18
2019-05-29T07:23:21.329Z,102286.20
2019-05-29T07:25:51.903Z,102288.95
2019-05-29T07:28:32.479Z,102292.69
2019-05-29T07:31:03.421Z,102289.92
2019-05-29T07:33:31.321Z,102285.27
2019-05-29T07:36:05.842Z,102278.48
2019-05-29T07:38:34.532Z,102280.53
2019-05-29T07:41:03.145Z,102284.02
2019-05-29T07:43:31.793Z,102283.91
2019-05-29T07:46:00.409Z,102284.14
2019-05-29T07:48:34.116Z,102288.53
2019-05-29T07:51:06.986Z,102289.06
2019-05-29T07:53:33.768Z,102287.36
2019-05-29T07:56:02.376Z,102292.62
2019-05-29T07:58:30.944Z,102291.91
2019-05-29T08:01:11.612Z,102295.06
2019-05-29T08:03:29.748Z,102292.53
2019-05-29T08:05:58.352Z,102287.16
2019-05-29T08:08:26.837Z,102284.66
2019-05-29T08:10:55.355Z,102286.63
2019-05-29T08:13:27.733Z,102288.59
2019-05-29T08:16:02.660Z,102289.88
2019-05-29T08:18:29.338Z,102291.86
2019-05-29T08:20:57.933Z,102292.38
2019-05-29T08:23:26.613Z,102289.37
2019-05-29T08:25:55.338Z,102285.38
2019-05-29T08:28:23.871Z,102288.71
2019-05-29T08:30:56.233Z,102286.03
2019-05-29T08:33:22.835Z,102287.52
2019-05-29T08:36:00.119Z,102279.97
2019-05-29T08:38:26.320Z,102282.31
2019-05-29T08:40:54.889Z,102278.94
2019-05-29T08:43:23.445Z,102272.70
2019-05-29T08:45:53.711Z,102274.68
2019-05-29T08:48:22.272Z,102283.05
2019-05-29T08:50:51.980Z,102284.91
2019-05-29T08:53:20.618Z,102278.48
2019-05-29T08:55:52.705Z,102280.19
2019-05-29T08:58:21.511Z,102281.80
2019-05-29T09:00:53.599Z,102271.88
2019-05-29T09:03:20.468Z,102278.19
2019-05-29T09:06:06.138Z,102273.73
2019-05-29T09:08:19.420Z,102275.57
2019-05-29T09:10:49.622Z,102276.86
2019-05-29T09:13:18.354Z,102274.80
2019-05-29T09:15:47.620Z,102277.75
2019-05-29T09:18:17.048Z,102282.03
2019-05-29T09:21:02.233Z,102274.09
2019-05-29T09:23:16.882Z,102275.76
2019-05-29T09:25:45.553Z,102274.30
2019-05-29T09:28:14.693Z,102269.77
2019-05-29T09:30:44.132Z,102274.37
2019-05-29T09:33:15.312Z,102273.24
2019-05-29T09:35:43.209Z,102277.00
2019-05-29T09:38:11.801Z,102275.36
2019-05-29T09:40:40.507Z,102282.83
2019-05-29T09:43:09.176Z,102279.02
2019-05-29T09:45:37.808Z,102278.45
2019-05-29T09:48:06.621Z,102275.62
2019-05-29T09:50:49.683Z,102275.61
2019-05-29T09:53:05.535Z,102274.73
2019-05-29T09:55:34.147Z,102277.72
2019-05-29T09:58:02.782Z,102281.94
2019-05-29T10:00:31.358Z,102278.73
2019-05-29T10:03:01.327Z,102279.52
2019-05-29T10:05:29.974Z,102277.77
2019-05-29T10:08:02.317Z,102277.30
2019-05-29T10:10:30.883Z,102279.94
2019-05-29T10:12:59.981Z,102276.36
2019-05-29T10:15:28.637Z,102275.58
2019-05-29T10:17:58.434Z,102270.77
2019-05-29T10:20:27.116Z,102279.05
2019-05-29T10:22:56.823Z,102270.56
2019-05-29T10:25:25.728Z,102267.77
2019-05-29T10:27:54.259Z,102266.38
2019-05-29T10:30:22.889Z,102264.28
2019-05-29T10:32:52.899Z,102269.42
2019-05-29T10:35:23.252Z,102270.01
2019-05-29T10:37:53.007Z,102266.06
2019-05-29T10:40:21.675Z,102263.73
2019-05-29T10:42:51.485Z,102267.35
2019-05-29T10:45:22.572Z,102262.33
2019-05-29T10:47:52.330Z,102266.70
2019-05-29T10:50:21.329Z,102257.48
2019-05-29T10:52:50.010Z,102255.72
2019-05-29T10:55:20.961Z,102256.20
2019-05-29T10:57:50.766Z,102252.00
2019-05-29T11:00:19.784Z,102255.12
2019-05-29T11:02:49.969Z,102250.87
2019-05-29T11:05:18.575Z,102246.87
2019-05-29T11:07:47.668Z,102251.13
2019-05-29T11:10:16.251Z,102240.60
2019-05-29T11:12:44.791Z,102238.00
2019-05-29T11:15:21.263Z,102242.23
2019-05-29T11:17:43.646Z,102231.06
2019-05-29T11:20:12.305Z,102225.17
2019-05-29T11:22:40.905Z,102232.91
2019-05-29T11:25:21.673Z,102229.91
2019-05-29T11:27:39.745Z,102232.81
2019-05-29T11:30:09.400Z,102231.15
2019-05-29T11:32:38.019Z,102228.36
2019-05-29T11:35:06.573Z,102227.73
2019-05-29T11:37:35.173Z,102228.05
2019-05-29T11:40:04.636Z,102228.36
2019-05-29T11:42:33.266Z,102228.88
2019-05-29T11:45:01.853Z,102229.41
2019-05-29T11:47:30.436Z,102227.93
2019-05-29T11:50:03.504Z,102228.82
2019-05-29T11:52:39.827Z,102226.58
2019-05-29T11:55:03.310Z,102230.88
2019-05-29T11:57:30.054Z,102226.08
2019-05-29T12:00:05.898Z,102220.88
2019-05-29T12:02:29.079Z,102226.48
2019-05-29T12:05:01.160Z,102213.92
2019-05-29T12:07:27.979Z,102217.78
2019-05-29T12:09:57.540Z,102222.55
2019-05-29T12:12:26.202Z,102206.65
2019-05-29T12:15:06.022Z,102217.95
2019-05-29T12:17:24.999Z,102215.17
2019-05-29T12:19:54.195Z,102218.67
2019-05-29T12:22:22.768Z,102213.57
2019-05-29T12:24:52.492Z,102211.45
2019-05-29T12:27:21.405Z,102212.69
2019-05-29T12:29:50.254Z,102212.22
2019-05-29T12:32:19.053Z,102210.92
2019-05-29T12:34:53.680Z,102215.88
2019-05-29T12:37:18.095Z,102211.09
2019-05-29T12:39:46.854Z,102204.20
2019-05-29T12:42:15.676Z,102195.94
2019-05-29T12:44:44.344Z,102188.89
2019-05-29T12:47:12.904Z,102199.96
2019-05-29T12:49:41.457Z,102205.98
2019-05-29T12:52:10.291Z,102194.76
2019-05-29T12:54:39.025Z,102189.31
2019-05-29T12:57:07.577Z,102193.94
2019-05-29T12:59:37.773Z,102196.88
2019-05-29T13:02:06.266Z,102193.28
2019-05-29T13:05:05.122Z,102182.06
2019-05-29T13:07:05.125Z,102174.53
2019-05-29T13:09:34.575Z,102170.71
2019-05-29T13:12:04.670Z,102163.30
2019-05-29T13:14:33.403Z,102170.48
2019-05-29T13:17:03.048Z,102179.72
2019-05-29T13:19:31.729Z,102166.36
2019-05-29T13:22:01.402Z,102168.39
2019-05-29T13:24:30.303Z,102156.14
2019-05-29T13:26:59.602Z,102174.68
2019-05-29T13:29:28.379Z,102178.42
2019-05-29T13:31:57.962Z,102168.34
2019-05-29T13:34:27.209Z,102171.06
2019-05-29T13:36:59.814Z,102153.52
2019-05-29T13:39:29.191Z,102152.29
2019-05-29T13:41:56.408Z,102154.80
2019-05-29T13:44:24.985Z,102148.23
2019-05-29T13:46:53.718Z,102146.23
2019-05-29T13:49:22.313Z,102148.08
2019-05-29T13:51:50.888Z,102151.58
2019-05-29T13:54:19.487Z,102149.45
2019-05-29T13:56:48.175Z,102146.55
2019-05-29T13:59:16.729Z,102138.27
2019-05-29T14:01:48.209Z,102131.72
2019-05-29T14:04:15.532Z,102125.78
2019-05-29T14:06:44.192Z,102125.56
2019-05-29T14:09:12.753Z,102121.64
2019-05-29T14:11:41.387Z,102127.19
2019-05-29T14:14:13.334Z,102119.98
2019-05-29T14:16:40.300Z,102119.47
2019-05-29T14:19:08.898Z,102121.05
2019-05-29T14:21:37.470Z,102115.70
2019-05-29T14:24:23.482Z,102121.36
2019-05-29T14:26:36.499Z,102124.38
2019-05-29T14:29:05.956Z,102130.09
2019-05-29T14:31:34.781Z,102125.80
2019-05-29T14:34:03.383Z,102120.12
2019-05-29T14:36:31.910Z,102112.73
2019-05-29T14:39:01.542Z,102120.95
2019-05-29T14:41:30.172Z,102124.39
2019-05-29T14:43:58.773Z,102109.54
2019-05-29T14:46:27.388Z,102107.58
2019-05-29T14:48:55.982Z,102101.37
2019-05-29T14:51:24.745Z,102100.74
2019-05-29T14:53:53.344Z,102097.61
2019-05-29T14:56:21.979Z,102095.37
2019-05-29T14:58:50.578Z,102093.15
2019-05-29T15:01:19.209Z,102093.88
2019-05-29T15:03:47.781Z,102093.84
2019-05-29T15:06:16.601Z,102093.69
2019-05-29T15:08:45.111Z,102106.98
2019-05-29T15:11:14.104Z,102092.64
2019-05-29T15:13:42.782Z,102093.37
2019-05-29T15:16:12.771Z,102092.08
2019-05-29T15:18:41.534Z,102085.27
2019-05-29T15:21:10.968Z,102094.72
2019-05-29T15:23:39.907Z,102089.50
2019-05-29T15:26:09.573Z,102087.05
2019-05-29T15:28:38.164Z,102083.77
2019-05-29T15:31:07.045Z,102082.90
2019-05-29T15:33:36.855Z,102083.78
2019-05-29T15:36:06.451Z,102092.05
2019-05-29T15:38:36.033Z,102087.15
2019-05-29T15:41:04.696Z,102088.77
2019-05-29T15:43:33.240Z,102086.42
2019-05-29T15:46:02.532Z,102083.91
2019-05-29T15:48:31.018Z,102078.55
2019-05-29T15:50:59.511Z,102079.77
2019-05-29T15:53:28.076Z,102081.19
2019-05-29T15:55:56.610Z,102087.70
2019-05-29T15:58:25.189Z,102099.22
2019-05-29T16:00:53.766Z,102094.48
2019-05-29T16:03:22.360Z,102088.27
2019-05-29T16:05:50.930Z,102085.29
2019-05-29T16:08:19.538Z,102084.84
2019-05-29T16:10:48.038Z,102086.98
2019-05-29T16:13:17.301Z,102083.64
2019-05-29T16:15:45.966Z,102086.52
2019-05-29T16:18:26.191Z,102085.84
2019-05-29T16:20:44.750Z,102083.34
2019-05-29T16:23:28.304Z,102083.50
2019-05-29T16:25:43.536Z,102084.00
2019-05-29T16:28:13.072Z,102080.55
2019-05-29T16:30:41.660Z,102077.90
2019-05-29T16:33:10.902Z,102078.03
2019-05-29T16:35:39.562Z,102076.09
2019-05-29T16:38:08.160Z,102072.42
2019-05-29T16:40:36.676Z,102072.64
2019-05-29T16:43:05.207Z,102069.93
2019-05-29T16:45:33.740Z,102061.92
2019-05-29T16:48:02.711Z,102070.66
2019-05-29T16:50:31.259Z,102065.52
2019-05-29T16:52:59.788Z,102067.05
2019-05-29T16:55:28.363Z,102074.53
2019-05-29T16:57:56.982Z,102068.71
2019-05-29T17:00:25.543Z,102070.05
2019-05-29T17:02:54.043Z,102072.81
2019-05-29T17:05:24.162Z,102073.90
2019-05-29T17:07:52.863Z,102073.45
2019-05-29T17:10:24.742Z,102073.89
2019-05-29T17:12:53.355Z,102069.78
2019-05-29T17:15:22.837Z,102070.69
2019-05-29T17:17:51.454Z,102069.21
2019-05-29T17:20:23.255Z,102075.98
2019-05-29T17:22:51.948Z,102068.73
2019-05-29T17:25:20.744Z,102076.20
2019-05-29T17:27:50.782Z,102075.87
2019-05-29T17:30:23.050Z,102071.08
2019-05-29T17:32:51.766Z,102073.52
2019-05-29T17:35:21.221Z,102070.98
2019-05-29T17:37:49.909Z,102073.70
2019-05-29T17:40:19.163Z,102076.56
2019-05-29T17:42:47.842Z,102072.38
2019-05-29T17:45:20.908Z,102076.93
2019-05-29T17:47:46.755Z,102072.95
2019-05-29T17:50:19.872Z,102070.53
2019-05-29T17:52:45.649Z,102068.72
2019-05-29T17:55:14.173Z,102070.64
2019-05-29T17:57:42.862Z,102069.57
2019-05-29T18:00:18.065Z,102070.59
2019-05-29T18:02:51.824Z,102074.65
2019-05-29T18:05:18.312Z,102072.03
2019-05-29T18:07:47.247Z,102074.20
2019-05-29T18:10:18.839Z,102072.50
2019-05-29T18:12:46.095Z,102068.78
2019-05-29T18:15:14.666Z,102068.63
2019-05-29T18:17:44.368Z,102071.77
2019-05-29T18:20:14.745Z,102078.02
2019-05-29T18:22:43.195Z,102076.43
2019-05-29T18:25:12.132Z,102074.47
2019-05-29T18:27:40.695Z,102076.58
2019-05-29T18:30:09.469Z,102082.38
2019-05-29T18:32:38.211Z,102081.90
2019-05-29T18:35:07.960Z,102082.83
2019-05-29T18:37:36.731Z,102082.58
2019-05-29T18:40:12.669Z,102084.16
2019-05-29T18:42:40.485Z,102088.77
2019-05-29T18:45:20.213Z,102086.08
2019-05-29T18:47:41.599Z,102085.50
2019-05-29T18:50:10.820Z,102084.69
2019-05-29T18:52:39.466Z,102086.34
2019-05-29T18:55:08.179Z,102086.94
2019-05-29T18:57:36.781Z,102084.40
2019-05-29T19:00:08.495Z,102079.86
2019-05-29T19:02:37.024Z,102084.09
2019-05-29T19:05:06.126Z,102085.18
2019-05-29T19:07:34.712Z,102083.90
2019-05-29T19:10:06.707Z,102085.91
2019-05-29T19:12:35.693Z,102084.78
2019-05-29T19:15:06.277Z,102088.20
2019-05-29T19:17:34.791Z,102088.41
2019-05-29T19:20:03.510Z,102084.04
2019-05-29T19:22:32.645Z,102085.44
2019-05-29T19:25:01.556Z,102086.44
2019-05-29T19:27:39.081Z,102088.08
2019-05-29T19:30:00.667Z,102099.84
2019-05-29T19:32:29.398Z,102112.88
2019-05-29T19:34:57.993Z,102109.81
2019-05-29T19:37:27.817Z,102109.81
2019-05-29T19:39:56.498Z,102116.34
2019-05-29T19:42:26.122Z,102120.30
2019-05-29T19:44:54.777Z,102123.27
2019-05-29T19:47:24.507Z,102126.00
2019-05-29T19:49:53.363Z,102136.77
2019-05-29T19:52:22.069Z,102136.52
2019-05-29T19:54:50.804Z,102132.67
2019-05-29T19:57:19.846Z,102137.38
2019-05-29T19:59:48.465Z,102138.52
2019-05-29T20:02:17.807Z,102138.42
2019-05-29T20:04:46.412Z,102141.77
2019-05-29T20:07:15.294Z,102145.41
2019-05-29T20:09:43.934Z,102149.55
2019-05-29T20:12:14.175Z,102156.63
2019-05-29T20:14:42.890Z,102160.70
2019-05-29T20:17:11.490Z,102159.63
2019-05-29T20:19:41.037Z,102165.36
2019-05-29T20:22:09.637Z,102176.53
2019-05-29T20:24:39.060Z,102179.47
2019-05-29T20:27:07.746Z,102173.16
2019-05-29T20:29:36.475Z,102173.98
2019-05-29T20:32:05.071Z,102175.69
2019-05-29T20:34:34.687Z,102181.45
2019-05-29T20:37:03.361Z,102181.64
2019-05-29T20:39:32.963Z,102180.13
2019-05-29T20:42:02.269Z,102182.79
2019-05-29T20:44:30.983Z,102176.24
2019-05-29T20:46:59.692Z,102178.10
2019-05-29T20:49:28.280Z,102179.48
2019-05-29T20:51:56.781Z,102175.30
2019-05-29T20:54:25.332Z,102171.58
2019-05-29T20:56:53.986Z,102164.09
2019-05-29T20:59:22.513Z,102164.81
2019-05-29T21:01:51.204Z,102168.48
2019-05-29T21:04:19.812Z,102169.11
2019-05-29T21:06:48.388Z,102172.64
2019-05-29T21:09:17.022Z,102172.33
2019-05-29T21:11:45.610Z,102174.23
2019-05-29T21:14:14.537Z,102172.94
2019-05-29T21:16:46.318Z,102173.00
2019-05-29T21:19:14.901Z,102176.58
2019-05-29T21:21:44.564Z,102180.94
2019-05-29T21:24:13.209Z,102179.95
2019-05-29T21:26:43.126Z,102177.20
2019-05-29T21:29:11.802Z,102184.28
2019-05-29T21:31:41.633Z,102184.81
2019-05-29T21:34:10.252Z,102180.75
2019-05-29T21:36:39.938Z,102176.41
2019-05-29T21:39:08.553Z,102180.61
2019-05-29T21:41:38.384Z,102173.14
2019-05-29T21:44:07.007Z,102178.80
2019-05-29T21:46:36.685Z,102174.59
2019-05-29T21:49:05.353Z,102168.89
2019-05-29T21:51:33.992Z,102169.67
2019-05-29T21:54:02.537Z,102168.07
2019-05-29T21:56:31.186Z,102168.02
2019-05-29T21:59:03.846Z,102168.42
2019-05-29T22:01:29.998Z,102169.47
2019-05-29T22:03:58.891Z,102169.51
2019-05-29T22:06:27.658Z,102168.22
2019-05-29T22:08:56.164Z,102165.09
2019-05-29T22:11:24.796Z,102163.69
2019-05-29T22:13:54.189Z,102161.63
2019-05-29T22:16:22.944Z,102160.78
2019-05-29T22:18:52.774Z,102157.44
2019-05-29T22:21:21.404Z,102161.05
2019-05-29T22:23:51.015Z,102160.50
2019-05-29T22:26:19.621Z,102165.63
2019-05-29T22:28:48.198Z,102164.12
2019-05-29T22:31:17.005Z,102167.56
2019-05-29T22:33:45.584Z,102165.70
2019-05-29T22:36:14.307Z,102162.56
2019-05-29T22:38:43.056Z,102159.14
2019-05-29T22:41:11.545Z,102163.94
2019-05-29T22:43:40.138Z,102157.73
2019-05-29T22:46:08.744Z,102153.05
2019-05-29T22:48:37.285Z,102151.20
2019-05-29T22:51:05.849Z,102148.10
2019-05-29T22:53:34.335Z,102150.06
2019-05-29T22:56:02.984Z,102144.14
2019-05-29T22:58:31.511Z,102145.56
2019-05-29T23:01:00.163Z,102135.88
2019-05-29T23:03:28.866Z,102136.69
2019-05-29T23:05:58.241Z,102138.17
2019-05-29T23:08:26.893Z,102136.76
2019-05-29T23:10:56.209Z,102134.84
2019-05-29T23:13:24.795Z,102130.84
2019-05-29T23:15:54.466Z,102125.44
2019-05-29T23:18:23.188Z,102127.50
2019-05-29T23:20:52.397Z,102121.71
2019-05-29T23:23:21.102Z,102120.53
2019-05-29T23:25:49.708Z,102118.27
2019-05-29T23:28:18.287Z,102116.91
2019-05-29T23:30:46.811Z,102115.41
2019-05-29T23:33:15.343Z,102109.83
2019-05-29T23:35:43.965Z,102114.84
2019-05-29T23:38:12.503Z,102108.85
2019-05-29T23:40:41.496Z,102111.41
2019-05-29T23:43:10.036Z,102108.31
2019-05-29T23:45:38.602Z,102106.05
2019-05-29T23:48:07.511Z,102102.25
2019-05-29T23:50:36.078Z,102103.55
2019-05-29T23:53:04.635Z,102102.19
2019-05-29T23:55:33.311Z,102099.76
2019-05-29T23:58:02.116Z,102099.13
